createdAt,value
2022-11-01T00:01:58.810Z,14.47
2022-11-01T00:04:26.159Z,14.77
2022-11-01T00:06:53.167Z,14.07
2022-11-01T00:09:20.102Z,14.33
2022-11-01T00:11:47.466Z,13.90
2022-11-01T00:14:16.181Z,13.77
2022-11-01T00:16:43.893Z,15.17
2022-11-01T00:19:11.475Z,15.67
2022-11-01T00:21:38.618Z,16.33
2022-11-01T00:24:05.813Z,15.80
2022-11-01T00:26:32.928Z,15.93
2022-11-01T00:29:00.093Z,16.57
2022-11-01T00:31:27.195Z,15.90
2022-11-01T00:33:54.069Z,14.90
2022-11-01T00:36:21.040Z,14.83
2022-11-01T00:38:51.905Z,17.77
2022-11-01T00:41:20.858Z,16.03
2022-11-01T00:43:48.280Z,16.13
2022-11-01T00:46:15.628Z,16.40
2022-11-01T00:48:42.608Z,16.93
2022-11-01T00:51:09.521Z,15.03
2022-11-01T00:53:36.562Z,16.40
2022-11-01T00:56:05.542Z,16.20
2022-11-01T00:58:32.868Z,14.07
2022-11-01T01:01:00.214Z,14.47
2022-11-01T01:03:27.169Z,13.53
2022-11-01T01:05:54.921Z,14.80
2022-11-01T01:08:22.804Z,17.17
2022-11-01T01:10:49.804Z,15.73
2022-11-01T01:13:17.151Z,16.30
2022-11-01T01:15:44.424Z,16.53
2022-11-01T01:18:11.427Z,16.63
2022-11-01T01:20:38.363Z,15.50
2022-11-01T01:23:05.373Z,16.40
2022-11-01T01:25:32.561Z,16.00
2022-11-01T01:27:59.867Z,16.30
2022-11-01T01:30:27.089Z,15.77
2022-11-01T01:32:54.031Z,16.30
2022-11-01T01:35:20.918Z,15.60
2022-11-01T01:37:47.866Z,16.67
2022-11-01T01:40:14.875Z,16.13
2022-11-01T01:42:43.105Z,15.67
2022-11-01T01:45:31.884Z,14.83
2022-11-01T01:48:26.241Z,14.33
2022-11-01T01:51:04.515Z,12.97
2022-11-01T01:53:42.155Z,13.50
2022-11-01T01:56:13.773Z,12.50
2022-11-01T01:58:49.797Z,12.40
2022-11-01T02:01:17.354Z,12.97
2022-11-01T02:03:45.175Z,13.03
2022-11-01T02:06:15.595Z,13.30
2022-11-01T02:08:46.596Z,12.63
2022-11-01T02:11:15.190Z,12.27
2022-11-01T02:13:42.138Z,11.63
2022-11-01T02:16:39.224Z,12.00
2022-11-01T02:19:24.793Z,12.47
2022-11-01T02:22:07.130Z,14.50
2022-11-01T02:25:01.304Z,14.27
2022-11-01T02:27:49.301Z,13.90
2022-11-01T02:30:23.642Z,14.20
2022-11-01T02:32:58.886Z,12.77
2022-11-01T02:35:44.582Z,12.00
2022-11-01T02:38:17.335Z,13.10
2022-11-01T02:41:11.877Z,12.53
2022-11-01T02:44:05.393Z,12.27
2022-11-01T02:46:58.065Z,12.33
2022-11-01T02:49:40.628Z,11.63
2022-11-01T02:52:11.350Z,11.80
2022-11-01T02:54:45.577Z,11.47
2022-11-01T02:57:31.241Z,12.37
2022-11-01T03:00:05.381Z,12.53
2022-11-01T03:02:44.400Z,13.87
2022-11-01T03:05:16.961Z,12.27
2022-11-01T03:07:50.684Z,12.37
2022-11-01T03:10:21.274Z,12.10
2022-11-01T03:13:29.203Z,13.20
2022-11-01T03:16:19.329Z,13.10
2022-11-01T03:19:01.276Z,12.87
2022-11-01T03:21:32.387Z,12.60
2022-11-01T03:24:12.758Z,13.67
2022-11-01T03:26:42.718Z,13.17
2022-11-01T03:29:11.841Z,14.47
2022-11-01T03:31:40.891Z,13.60
2022-11-01T03:34:15.103Z,13.83
2022-11-01T03:36:52.226Z,13.33
2022-11-01T03:39:24.783Z,14.30
2022-11-01T03:41:58.652Z,13.37
2022-11-01T03:44:30.747Z,15.83
2022-11-01T03:46:57.826Z,15.00
2022-11-01T03:49:24.945Z,14.30
2022-11-01T03:51:52.125Z,13.53
2022-11-01T03:54:19.000Z,14.45
2022-11-01T03:56:46.026Z,13.60
2022-11-01T03:59:13.155Z,14.03
2022-11-01T04:01:40.569Z,14.00
2022-11-01T04:04:07.725Z,13.50
2022-11-01T04:06:34.713Z,12.67
2022-11-01T04:09:01.646Z,12.50
2022-11-01T04:11:28.646Z,13.17
2022-11-01T04:14:15.702Z,13.67
2022-11-01T04:17:01.013Z,13.23
2022-11-01T04:19:46.576Z,13.90
2022-11-01T04:22:13.686Z,14.10
2022-11-01T04:24:40.648Z,14.23
2022-11-01T04:27:07.608Z,14.40
2022-11-01T04:29:34.517Z,15.63
2022-11-01T04:32:02.269Z,15.30
2022-11-01T04:34:44.526Z,13.97
2022-11-01T04:37:12.533Z,13.30
2022-11-01T04:39:39.533Z,14.70
2022-11-01T04:42:06.537Z,16.15
2022-11-01T04:44:33.543Z,15.87
2022-11-01T04:47:00.470Z,16.10
2022-11-01T04:49:27.401Z,17.10
2022-11-01T04:51:54.337Z,15.70
2022-11-01T04:54:21.478Z,16.40
2022-11-01T04:56:48.476Z,14.67
2022-11-01T04:59:15.469Z,15.10
2022-11-01T05:01:42.490Z,14.70
2022-11-01T05:04:09.444Z,14.60
2022-11-01T05:06:36.427Z,14.05
2022-11-01T05:09:03.351Z,13.80
2022-11-01T10:05:06.034Z,1.77
2022-11-01T10:08:09.270Z,1.40
2022-11-01T10:10:52.100Z,1.30
2022-11-01T10:13:55.542Z,1.40
2022-11-01T10:16:32.426Z,1.60
2022-11-01T10:19:18.868Z,1.50
2022-11-01T10:21:56.810Z,1.10
2022-11-01T10:24:45.341Z,1.63
2022-11-01T10:27:34.542Z,1.53
2022-11-01T10:30:08.648Z,1.53
2022-11-01T10:32:55.687Z,1.20
2022-11-01T10:35:35.382Z,1.37
2022-11-01T10:38:24.979Z,1.50
2022-11-01T10:41:31.170Z,1.70
2022-11-01T10:44:02.494Z,1.40
2022-11-01T10:46:40.319Z,1.70
2022-11-01T10:49:53.013Z,1.80
2022-11-01T10:52:25.046Z,1.53
2022-11-01T10:54:53.768Z,1.47
2022-11-01T10:57:41.848Z,1.57
2022-11-01T11:00:16.521Z,1.40
2022-11-01T11:02:47.542Z,1.67
2022-11-01T11:05:15.862Z,1.70
2022-11-01T11:07:44.214Z,2.23
2022-11-01T11:10:28.374Z,1.60
2022-11-01T11:13:02.310Z,1.97
2022-11-01T11:15:47.066Z,1.83
2022-11-01T11:18:30.687Z,1.60
2022-11-01T11:21:00.504Z,2.13
2022-11-01T11:23:29.747Z,1.70
2022-11-01T11:26:05.317Z,1.80
2022-11-01T11:28:35.406Z,1.27
2022-11-01T11:31:15.742Z,2.20
2022-11-01T11:33:50.264Z,2.00
2022-11-01T11:36:18.858Z,1.50
2022-11-01T11:38:49.104Z,1.67
2022-11-01T11:41:28.703Z,1.80
2022-11-01T11:43:55.860Z,1.43
2022-11-01T11:46:24.849Z,2.00
2022-11-01T11:49:04.678Z,1.80
2022-11-01T11:51:37.702Z,1.53
2022-11-01T11:54:22.007Z,1.60
2022-11-01T11:57:07.608Z,1.80
2022-11-01T11:59:35.563Z,1.40
2022-11-01T12:02:05.741Z,1.73
2022-11-01T12:05:00.673Z,1.50
2022-11-01T12:07:30.818Z,1.10
2022-11-01T12:10:04.641Z,1.40
2022-11-01T12:12:40.701Z,2.17
2022-11-01T12:15:26.826Z,1.10
2022-11-01T12:17:54.450Z,1.30
2022-11-01T12:20:26.618Z,1.40
2022-11-01T12:22:56.590Z,1.57
2022-11-01T12:25:25.138Z,1.37
2022-11-01T12:28:02.034Z,1.50
2022-11-01T12:30:34.220Z,1.50
2022-11-01T12:33:32.610Z,1.43
2022-11-01T12:36:00.085Z,1.40
2022-11-01T12:38:53.606Z,1.03
2022-11-01T12:41:34.457Z,1.33
2022-11-01T12:44:20.911Z,1.40
2022-11-01T12:46:57.511Z,1.40
2022-11-01T12:49:40.774Z,1.47
2022-11-01T12:52:35.274Z,1.60
2022-11-01T12:55:31.234Z,1.40
2022-11-01T12:57:58.842Z,1.53
2022-11-01T13:00:42.650Z,1.40
2022-11-01T13:03:51.752Z,1.30
2022-11-01T13:06:53.205Z,1.57
2022-11-01T13:09:32.632Z,1.10
2022-11-01T13:12:08.365Z,1.50
2022-11-01T13:15:10.849Z,1.43
2022-11-01T13:17:54.031Z,2.73
2022-11-01T13:20:29.221Z,2.00
2022-11-01T13:23:02.325Z,1.40
2022-11-01T13:25:50.253Z,1.43
2022-11-01T13:28:46.863Z,1.50
2022-11-01T13:31:37.310Z,1.20
2022-11-01T13:34:26.298Z,1.37
2022-11-01T13:37:06.910Z,1.20
2022-11-01T13:39:51.496Z,1.60
2022-11-01T13:42:22.569Z,1.50
2022-11-01T13:45:07.974Z,1.20
2022-11-01T13:48:12.459Z,1.20
2022-11-01T13:50:58.520Z,1.40
2022-11-01T13:53:25.673Z,1.90
2022-11-01T13:55:59.230Z,1.50
2022-11-01T13:58:27.312Z,1.60
2022-11-01T14:00:56.289Z,1.47
2022-11-01T14:03:33.197Z,1.20
2022-11-01T14:06:11.978Z,1.43
2022-11-01T14:08:47.600Z,1.87
2022-11-01T14:11:51.003Z,1.67
2022-11-01T14:14:30.433Z,1.40
2022-11-01T14:17:16.348Z,1.40
2022-11-01T14:19:45.047Z,1.70
2022-11-01T14:22:28.350Z,1.17
2022-11-01T14:24:58.504Z,1.07
2022-11-01T14:27:28.354Z,1.40
2022-11-01T14:29:56.529Z,1.30
2022-11-01T14:32:27.162Z,1.20
2022-11-01T14:35:12.019Z,1.53
2022-11-01T14:37:48.642Z,1.50
2022-11-01T14:40:21.646Z,1.33
2022-11-01T14:42:50.507Z,1.60
2022-11-01T14:45:23.228Z,1.63
2022-11-01T14:47:52.618Z,1.43
2022-11-01T14:50:26.507Z,1.43
2022-11-01T14:53:25.687Z,1.20
2022-11-01T14:56:21.791Z,1.77
2022-11-01T14:58:49.518Z,1.53
2022-11-01T15:01:23.531Z,1.60
2022-11-01T15:03:58.819Z,1.67
2022-11-01T15:06:30.510Z,1.50
2022-11-01T15:09:03.872Z,2.20
2022-11-01T15:11:33.452Z,2.10
2022-11-01T15:14:06.117Z,1.40
2022-11-01T15:16:35.465Z,1.60
2022-11-01T15:19:14.205Z,1.70
2022-11-01T15:21:47.378Z,1.67
2022-11-01T15:24:24.200Z,1.50
2022-11-01T15:26:51.986Z,2.13
2022-11-01T15:29:25.551Z,1.87
2022-11-01T15:31:58.039Z,1.50
2022-11-01T15:34:27.989Z,1.80
2022-11-01T15:36:55.297Z,2.50
2022-11-01T15:39:25.119Z,1.77
2022-11-01T15:41:55.181Z,2.07
2022-11-01T15:44:27.800Z,2.47
2022-11-01T15:47:02.054Z,2.10
2022-11-01T15:49:45.057Z,1.87
2022-11-01T15:52:19.040Z,1.70
2022-11-01T15:54:59.670Z,1.53
2022-11-01T15:57:55.167Z,2.10
2022-11-01T16:00:33.801Z,1.87
2022-11-01T16:03:12.823Z,2.30
2022-11-01T16:06:01.766Z,2.40
2022-11-01T16:08:31.278Z,2.40
2022-11-01T16:10:59.113Z,2.33
2022-11-01T16:13:26.557Z,2.90
2022-11-01T16:16:03.254Z,2.70
2022-11-01T16:18:35.283Z,3.20
2022-11-01T16:21:08.973Z,3.23
2022-11-01T16:23:36.848Z,3.83
2022-11-01T16:26:07.768Z,2.93
2022-11-01T16:28:45.202Z,2.70
2022-11-01T16:31:28.856Z,3.93
2022-11-01T16:33:58.861Z,9.90
2022-11-01T16:36:37.706Z,8.50
2022-11-01T16:39:28.667Z,7.70
2022-11-01T16:41:56.401Z,6.33
2022-11-01T16:44:24.098Z,6.93
2022-11-01T16:46:52.754Z,8.13
2022-11-01T16:49:24.913Z,9.43
2022-11-01T16:51:53.304Z,9.70
2022-11-01T16:54:20.207Z,9.20
2022-11-01T16:56:53.264Z,8.53
2022-11-01T16:59:29.154Z,7.20
2022-11-01T17:01:58.507Z,5.97
2022-11-01T17:04:27.002Z,6.87
2022-11-01T17:06:55.678Z,8.97
2022-11-01T17:09:22.877Z,12.67
2022-11-01T17:11:54.370Z,17.27
2022-11-01T17:14:22.170Z,13.93
2022-11-01T17:16:51.145Z,11.97
2022-11-01T17:19:31.984Z,21.30
2022-11-01T17:22:02.754Z,20.33
2022-11-01T17:24:33.265Z,15.70
2022-11-01T17:27:05.148Z,22.43
2022-11-01T17:29:33.090Z,22.80
2022-11-01T17:32:01.462Z,18.90
2022-11-01T17:34:29.593Z,16.53
2022-11-01T17:36:57.523Z,13.87
2022-11-01T17:39:27.668Z,10.63
2022-11-01T17:41:55.211Z,10.00
2022-11-01T17:44:22.852Z,10.70
2022-11-01T17:46:49.867Z,9.93
2022-11-01T17:49:21.463Z,11.23
2022-11-01T17:51:54.154Z,12.20
2022-11-01T17:56:52.536Z,15.90
2022-11-01T17:59:19.570Z,8.67
2022-11-01T18:01:47.276Z,6.77
2022-11-01T18:04:14.486Z,8.13
2022-11-01T18:06:42.389Z,7.33
2022-11-01T18:09:24.288Z,6.00
2022-11-01T18:12:05.729Z,6.97
2022-11-01T18:14:48.034Z,7.43
2022-11-01T18:17:39.939Z,9.90
2022-11-01T18:20:24.941Z,8.00
2022-11-01T18:23:01.899Z,8.10
2022-11-01T18:25:36.483Z,7.57
2022-11-01T18:28:15.951Z,7.27
2022-11-01T18:30:51.127Z,7.07
2022-11-01T18:33:23.875Z,5.90
2022-11-01T18:36:00.609Z,6.47
2022-11-01T18:38:37.123Z,5.93
2022-11-01T18:41:08.103Z,6.10
2022-11-01T18:43:39.444Z,5.13
2022-11-01T18:46:27.363Z,4.83
2022-11-01T18:49:01.165Z,4.00
2022-11-01T18:51:31.346Z,3.93
2022-11-01T18:54:22.804Z,3.87
2022-11-01T18:56:53.678Z,3.83
2022-11-01T18:59:37.200Z,3.17
2022-11-01T19:02:27.555Z,2.60
2022-11-01T19:05:19.654Z,2.87
2022-11-01T19:08:10.074Z,7.30
2022-11-01T19:10:41.682Z,7.10
2022-11-01T19:13:35.809Z,6.50
2022-11-01T19:16:06.453Z,7.10
2022-11-01T19:18:36.123Z,8.13
2022-11-01T19:21:14.071Z,8.73
2022-11-01T19:23:43.285Z,8.77
2022-11-01T19:26:36.094Z,11.10
2022-11-01T19:29:26.047Z,12.57
2022-11-01T19:31:56.627Z,14.03
2022-11-01T19:34:27.782Z,12.20
2022-11-01T19:36:55.557Z,11.27
2022-11-01T19:39:29.932Z,9.23
2022-11-01T19:42:25.310Z,7.27
2022-11-01T19:45:10.325Z,4.50
2022-11-01T19:47:40.343Z,4.37
2022-11-01T19:50:43.807Z,3.50
2022-11-01T19:53:18.800Z,3.73
2022-11-01T19:56:02.744Z,3.20
2022-11-01T19:58:52.621Z,3.50
2022-11-01T20:01:25.843Z,3.50
2022-11-01T20:04:01.290Z,3.70
2022-11-01T20:06:30.878Z,3.33
2022-11-01T20:09:15.958Z,3.53
2022-11-01T20:11:42.960Z,4.47
2022-11-01T20:14:09.950Z,3.33
2022-11-01T20:16:36.973Z,3.40
2022-11-01T20:19:03.953Z,3.67
2022-11-01T20:21:30.922Z,4.27
2022-11-01T20:23:58.913Z,4.47
2022-11-01T20:26:26.531Z,4.70
2022-11-01T20:28:53.413Z,5.13
2022-11-01T20:31:20.666Z,4.77
2022-11-01T20:33:47.755Z,4.27
2022-11-01T20:36:14.830Z,4.60
2022-11-01T20:38:41.978Z,3.80
2022-11-01T20:41:09.009Z,3.33
2022-11-01T20:43:36.051Z,4.00
2022-11-01T20:46:03.025Z,3.53
2022-11-01T20:48:30.379Z,3.30
2022-11-01T20:51:00.126Z,3.07
2022-11-01T20:53:29.638Z,3.30
2022-11-01T20:55:56.980Z,3.10
2022-11-01T20:58:23.970Z,3.00
2022-11-01T21:00:53.711Z,3.13
2022-11-01T21:03:22.172Z,3.37
2022-11-01T21:05:50.556Z,3.00
2022-11-01T21:08:28.048Z,3.60
2022-11-01T21:11:02.334Z,3.37
2022-11-01T21:13:31.403Z,3.10
2022-11-01T21:16:00.045Z,3.40
2022-11-01T21:21:58.478Z,4.20
2022-11-01T21:24:31.376Z,4.13
2022-11-01T21:27:13.435Z,4.77
2022-11-01T21:29:43.435Z,5.40
2022-11-01T21:32:29.978Z,5.63
2022-11-01T21:34:58.387Z,5.90
2022-11-01T21:37:29.780Z,6.50
2022-11-01T21:40:04.850Z,7.87
2022-11-01T21:42:36.528Z,7.43
2022-11-01T21:45:33.096Z,6.97
2022-11-01T21:48:14.129Z,7.00
2022-11-01T21:50:41.156Z,7.83
2022-11-01T21:53:08.030Z,8.17
2022-11-01T21:55:34.987Z,9.07
